sensor_id;sensor_type;location;lat;lon;timestamp;P1;durP1;ratioP1;P2;durP2;ratioP2
33740;SDS011;20065;48.380;10.892;2022-08-21T00:02:13;4.70;;;3.47;;
33740;SDS011;20065;48.380;10.892;2022-08-21T00:05:04;5.43;;;3.93;;
33740;SDS011;20065;48.380;10.892;2022-08-21T00:07:51;6.50;;;4.30;;
33740;SDS011;20065;48.380;10.892;2022-08-21T00:10:38;5.60;;;3.93;;
33740;SDS011;20065;48.380;10.892;2022-08-21T00:13:26;6.73;;;4.00;;
33740;SDS011;20065;48.380;10.892;2022-08-21T00:16:12;6.77;;;4.37;;
33740;SDS011;20065;48.380;10.892;2022-08-21T00:18:58;7.83;;;4.77;;
33740;SDS011;20065;48.380;10.892;2022-08-21T00:21:45;5.30;;;4.03;;
33740;SDS011;20065;48.380;10.892;2022-08-21T00:24:31;6.97;;;4.90;;
33740;SDS011;20065;48.380;10.892;2022-08-21T00:27:17;6.33;;;4.53;;
33740;SDS011;20065;48.380;10.892;2022-08-21T00:30:05;6.70;;;4.23;;
33740;SDS011;20065;48.380;10.892;2022-08-21T00:32:53;6.83;;;4.90;;
33740;SDS011;20065;48.380;10.892;2022-08-21T00:35:42;6.43;;;4.50;;
33740;SDS011;20065;48.380;10.892;2022-08-21T00:38:28;6.97;;;4.87;;
33740;SDS011;20065;48.380;10.892;2022-08-21T00:41:15;6.07;;;4.70;;
33740;SDS011;20065;48.380;10.892;2022-08-21T00:44:05;7.03;;;4.50;;
33740;SDS011;20065;48.380;10.892;2022-08-21T00:46:54;6.97;;;4.60;;
33740;SDS011;20065;48.380;10.892;2022-08-21T00:49:41;7.23;;;4.50;;
33740;SDS011;20065;48.380;10.892;2022-08-21T00:52:28;6.60;;;4.40;;
33740;SDS011;20065;48.380;10.892;2022-08-21T00:55:17;12.63;;;4.50;;
33740;SDS011;20065;48.380;10.892;2022-08-21T00:58:06;6.63;;;4.47;;
33740;SDS011;20065;48.380;10.892;2022-08-21T01:00:54;7.90;;;4.73;;
33740;SDS011;20065;48.380;10.892;2022-08-21T01:03:41;5.70;;;4.53;;
33740;SDS011;20065;48.380;10.892;2022-08-21T01:06:27;6.07;;;4.70;;
33740;SDS011;20065;48.380;10.892;2022-08-21T01:09:14;5.00;;;3.60;;
33740;SDS011;20065;48.380;10.892;2022-08-21T01:12:00;4.30;;;3.40;;
33740;SDS011;20065;48.380;10.892;2022-08-21T01:14:47;5.23;;;3.80;;
33740;SDS011;20065;48.380;10.892;2022-08-21T01:17:33;5.97;;;4.10;;
33740;SDS011;20065;48.380;10.892;2022-08-21T01:20:21;6.80;;;3.80;;
33740;SDS011;20065;48.380;10.892;2022-08-21T01:23:07;5.10;;;3.40;;
33740;SDS011;20065;48.380;10.892;2022-08-21T01:25:53;5.17;;;3.47;;
33740;SDS011;20065;48.380;10.892;2022-08-21T01:28:48;4.67;;;3.40;;
33740;SDS011;20065;48.380;10.892;2022-08-21T01:31:59;5.00;;;3.23;;
33740;SDS011;20065;48.380;10.892;2022-08-21T01:34:50;4.80;;;3.40;;
33740;SDS011;20065;48.380;10.892;2022-08-21T01:37:38;3.90;;;3.17;;
33740;SDS011;20065;48.380;10.892;2022-08-21T01:40:25;5.13;;;3.30;;
33740;SDS011;20065;48.380;10.892;2022-08-21T01:43:11;4.67;;;3.70;;
33740;SDS011;20065;48.380;10.892;2022-08-21T01:45:58;4.80;;;3.40;;
33740;SDS011;20065;48.380;10.892;2022-08-21T01:48:44;6.53;;;3.47;;
33740;SDS011;20065;48.380;10.892;2022-08-21T01:51:30;5.07;;;3.70;;
33740;SDS011;20065;48.380;10.892;2022-08-21T01:54:16;4.07;;;3.10;;
33740;SDS011;20065;48.380;10.892;2022-08-21T01:57:03;6.50;;;3.40;;
33740;SDS011;20065;48.380;10.892;2022-08-21T01:59:50;5.33;;;3.77;;
33740;SDS011;20065;48.380;10.892;2022-08-21T02:02:36;4.57;;;3.50;;
33740;SDS011;20065;48.380;10.892;2022-08-21T02:05:23;9.80;;;3.70;;
33740;SDS011;20065;48.380;10.892;2022-08-21T02:08:09;7.60;;;3.40;;
33740;SDS011;20065;48.380;10.892;2022-08-21T02:10:56;6.00;;;3.83;;
33740;SDS011;20065;48.380;10.892;2022-08-21T02:13:42;5.70;;;3.40;;
33740;SDS011;20065;48.380;10.892;2022-08-21T02:16:28;5.33;;;4.17;;
33740;SDS011;20065;48.380;10.892;2022-08-21T02:19:18;8.00;;;4.23;;
33740;SDS011;20065;48.380;10.892;2022-08-21T02:22:04;6.53;;;4.03;;
33740;SDS011;20065;48.380;10.892;2022-08-21T02:24:50;5.60;;;4.00;;
33740;SDS011;20065;48.380;10.892;2022-08-21T02:27:37;6.00;;;3.93;;
33740;SDS011;20065;48.380;10.892;2022-08-21T02:30:29;6.33;;;3.33;;
33740;SDS011;20065;48.380;10.892;2022-08-21T02:33:18;5.67;;;4.17;;
33740;SDS011;20065;48.380;10.892;2022-08-21T02:36:04;6.00;;;3.83;;
33740;SDS011;20065;48.380;10.892;2022-08-21T02:38:51;5.40;;;4.10;;
33740;SDS011;20065;48.380;10.892;2022-08-21T02:41:37;5.80;;;3.83;;
33740;SDS011;20065;48.380;10.892;2022-08-21T02:44:23;4.73;;;3.77;;
33740;SDS011;20065;48.380;10.892;2022-08-21T02:47:09;5.10;;;3.90;;
33740;SDS011;20065;48.380;10.892;2022-08-21T02:49:55;5.30;;;3.60;;
33740;SDS011;20065;48.380;10.892;2022-08-21T02:52:41;7.47;;;4.47;;
33740;SDS011;20065;48.380;10.892;2022-08-21T02:55:29;4.50;;;3.60;;
33740;SDS011;20065;48.380;10.892;2022-08-21T02:58:18;5.53;;;3.77;;
33740;SDS011;20065;48.380;10.892;2022-08-21T03:01:10;5.97;;;4.20;;
33740;SDS011;20065;48.380;10.892;2022-08-21T03:03:56;9.30;;;4.63;;
33740;SDS011;20065;48.380;10.892;2022-08-21T03:06:42;7.90;;;4.60;;
33740;SDS011;20065;48.380;10.892;2022-08-21T03:09:29;5.80;;;4.20;;
33740;SDS011;20065;48.380;10.892;2022-08-21T03:12:15;26.27;;;6.80;;
33740;SDS011;20065;48.380;10.892;2022-08-21T03:15:05;5.23;;;4.23;;
33740;SDS011;20065;48.380;10.892;2022-08-21T03:17:52;6.37;;;4.67;;
33740;SDS011;20065;48.380;10.892;2022-08-21T03:20:40;9.30;;;4.80;;
33740;SDS011;20065;48.380;10.892;2022-08-21T03:23:27;6.20;;;4.13;;
33740;SDS011;20065;48.380;10.892;2022-08-21T03:26:15;6.80;;;4.53;;
33740;SDS011;20065;48.380;10.892;2022-08-21T03:29:03;8.03;;;5.20;;
33740;SDS011;20065;48.380;10.892;2022-08-21T03:31:49;8.50;;;4.80;;
33740;SDS011;20065;48.380;10.892;2022-08-21T03:34:35;7.77;;;4.50;;
33740;SDS011;20065;48.380;10.892;2022-08-21T03:37:23;6.30;;;4.80;;
33740;SDS011;20065;48.380;10.892;2022-08-21T03:40:13;6.20;;;4.27;;
33740;SDS011;20065;48.380;10.892;2022-08-21T03:43:01;5.10;;;3.80;;
33740;SDS011;20065;48.380;10.892;2022-08-21T03:45:47;7.10;;;4.80;;
33740;SDS011;20065;48.380;10.892;2022-08-21T03:48:34;7.20;;;4.63;;
33740;SDS011;20065;48.380;10.892;2022-08-21T03:51:21;9.73;;;4.83;;
33740;SDS011;20065;48.380;10.892;2022-08-21T03:54:08;6.03;;;4.57;;
33740;SDS011;20065;48.380;10.892;2022-08-21T03:56:54;9.20;;;4.77;;
33740;SDS011;20065;48.380;10.892;2022-08-21T03:59:40;7.97;;;4.00;;
33740;SDS011;20065;48.380;10.892;2022-08-21T04:02:28;8.07;;;4.77;;
33740;SDS011;20065;48.380;10.892;2022-08-21T04:05:16;5.30;;;4.00;;
33740;SDS011;20065;48.380;10.892;2022-08-21T04:08:13;7.47;;;4.40;;
33740;SDS011;20065;48.380;10.892;2022-08-21T04:11:00;5.67;;;4.13;;
33740;SDS011;20065;48.380;10.892;2022-08-21T04:13:47;7.33;;;4.60;;
33740;SDS011;20065;48.380;10.892;2022-08-21T04:16:33;6.40;;;4.70;;
33740;SDS011;20065;48.380;10.892;2022-08-21T04:19:19;10.70;;;4.83;;
33740;SDS011;20065;48.380;10.892;2022-08-21T04:22:06;6.30;;;4.43;;
33740;SDS011;20065;48.380;10.892;2022-08-21T04:24:52;7.33;;;4.77;;
33740;SDS011;20065;48.380;10.892;2022-08-21T04:27:38;6.03;;;4.60;;
33740;SDS011;20065;48.380;10.892;2022-08-21T04:30:25;7.83;;;4.60;;
33740;SDS011;20065;48.380;10.892;2022-08-21T04:33:12;7.80;;;4.60;;
33740;SDS011;20065;48.380;10.892;2022-08-21T04:35:59;8.77;;;4.10;;
33740;SDS011;20065;48.380;10.892;2022-08-21T04:38:45;6.77;;;5.50;;
33740;SDS011;20065;48.380;10.892;2022-08-21T04:41:31;8.40;;;4.30;;
33740;SDS011;20065;48.380;10.892;2022-08-21T04:44:17;6.63;;;4.07;;
33740;SDS011;20065;48.380;10.892;2022-08-21T04:47:04;6.90;;;4.30;;
33740;SDS011;20065;48.380;10.892;2022-08-21T04:49:51;6.17;;;4.47;;
33740;SDS011;20065;48.380;10.892;2022-08-21T04:52:37;5.97;;;4.40;;
33740;SDS011;20065;48.380;10.892;2022-08-21T04:55:23;7.90;;;4.27;;
33740;SDS011;20065;48.380;10.892;2022-08-21T04:58:11;6.43;;;4.30;;
33740;SDS011;20065;48.380;10.892;2022-08-21T05:01:00;6.53;;;4.43;;
33740;SDS011;20065;48.380;10.892;2022-08-21T05:03:48;5.97;;;4.33;;
33740;SDS011;20065;48.380;10.892;2022-08-21T05:06:36;8.07;;;4.53;;
33740;SDS011;20065;48.380;10.892;2022-08-21T05:09:27;8.70;;;4.40;;
33740;SDS011;20065;48.380;10.892;2022-08-21T05:12:14;9.03;;;4.33;;
33740;SDS011;20065;48.380;10.892;2022-08-21T05:15:00;6.60;;;4.10;;
33740;SDS011;20065;48.380;10.892;2022-08-21T05:17:46;5.80;;;4.40;;
33740;SDS011;20065;48.380;10.892;2022-08-21T05:20:33;5.97;;;4.40;;
33740;SDS011;20065;48.380;10.892;2022-08-21T05:23:22;6.10;;;3.80;;
33740;SDS011;20065;48.380;10.892;2022-08-21T05:26:08;7.83;;;5.00;;
33740;SDS011;20065;48.380;10.892;2022-08-21T05:28:55;5.93;;;4.53;;
33740;SDS011;20065;48.380;10.892;2022-08-21T05:31:41;8.20;;;4.67;;
33740;SDS011;20065;48.380;10.892;2022-08-21T05:34:28;6.67;;;4.20;;
33740;SDS011;20065;48.380;10.892;2022-08-21T05:37:14;7.60;;;4.13;;
33740;SDS011;20065;48.380;10.892;2022-08-21T05:40:00;6.30;;;4.40;;
33740;SDS011;20065;48.380;10.892;2022-08-21T05:42:47;8.20;;;4.77;;
33740;SDS011;20065;48.380;10.892;2022-08-21T05:45:34;6.20;;;4.50;;
33740;SDS011;20065;48.380;10.892;2022-08-21T05:48:21;6.73;;;4.47;;
33740;SDS011;20065;48.380;10.892;2022-08-21T05:51:10;6.23;;;4.50;;
33740;SDS011;20065;48.380;10.892;2022-08-21T05:53:58;6.83;;;4.33;;
33740;SDS011;20065;48.380;10.892;2022-08-21T05:56:44;6.63;;;3.67;;
33740;SDS011;20065;48.380;10.892;2022-08-21T05:59:30;5.37;;;3.97;;
33740;SDS011;20065;48.380;10.892;2022-08-21T06:02:17;7.30;;;3.90;;
33740;SDS011;20065;48.380;10.892;2022-08-21T06:05:04;6.07;;;3.77;;
33740;SDS011;20065;48.380;10.892;2022-08-21T06:07:51;9.27;;;3.40;;
33740;SDS011;20065;48.380;10.892;2022-08-21T06:10:40;6.87;;;3.50;;
33740;SDS011;20065;48.380;10.892;2022-08-21T06:13:27;4.63;;;3.13;;
33740;SDS011;20065;48.380;10.892;2022-08-21T06:16:14;8.40;;;4.03;;
33740;SDS011;20065;48.380;10.892;2022-08-21T06:19:02;5.30;;;3.67;;
33740;SDS011;20065;48.380;10.892;2022-08-21T06:21:48;8.47;;;3.70;;
33740;SDS011;20065;48.380;10.892;2022-08-21T06:24:34;6.73;;;3.70;;
33740;SDS011;20065;48.380;10.892;2022-08-21T06:27:21;5.90;;;3.57;;
33740;SDS011;20065;48.380;10.892;2022-08-21T06:30:07;7.30;;;3.63;;
33740;SDS011;20065;48.380;10.892;2022-08-21T06:32:55;5.10;;;3.33;;
33740;SDS011;20065;48.380;10.892;2022-08-21T06:35:41;6.27;;;4.20;;
33740;SDS011;20065;48.380;10.892;2022-08-21T06:38:27;5.43;;;3.83;;
33740;SDS011;20065;48.380;10.892;2022-08-21T06:41:13;7.83;;;3.40;;
33740;SDS011;20065;48.380;10.892;2022-08-21T06:43:59;6.17;;;4.03;;
33740;SDS011;20065;48.380;10.892;2022-08-21T06:46:45;10.33;;;4.07;;
33740;SDS011;20065;48.380;10.892;2022-08-21T06:49:31;5.20;;;3.77;;
33740;SDS011;20065;48.380;10.892;2022-08-21T06:52:18;7.00;;;3.50;;
33740;SDS011;20065;48.380;10.892;2022-08-21T06:55:04;5.40;;;3.77;;
33740;SDS011;20065;48.380;10.892;2022-08-21T06:57:53;7.00;;;4.20;;
33740;SDS011;20065;48.380;10.892;2022-08-21T07:00:39;6.60;;;3.70;;
33740;SDS011;20065;48.380;10.892;2022-08-21T07:03:28;9.90;;;4.30;;
33740;SDS011;20065;48.380;10.892;2022-08-21T07:06:17;5.80;;;3.43;;
33740;SDS011;20065;48.380;10.892;2022-08-21T07:09:03;5.60;;;3.53;;
33740;SDS011;20065;48.380;10.892;2022-08-21T07:11:51;7.80;;;4.47;;
33740;SDS011;20065;48.380;10.892;2022-08-21T07:14:38;6.07;;;3.53;;
33740;SDS011;20065;48.380;10.892;2022-08-21T07:17:25;6.67;;;3.83;;
33740;SDS011;20065;48.380;10.892;2022-08-21T07:20:11;9.07;;;4.13;;
33740;SDS011;20065;48.380;10.892;2022-08-21T07:22:58;6.67;;;4.00;;
33740;SDS011;20065;48.380;10.892;2022-08-21T07:25:47;5.90;;;4.00;;
33740;SDS011;20065;48.380;10.892;2022-08-21T07:28:34;6.50;;;4.17;;
33740;SDS011;20065;48.380;10.892;2022-08-21T07:31:21;7.10;;;4.70;;
33740;SDS011;20065;48.380;10.892;2022-08-21T07:34:08;8.83;;;4.33;;
33740;SDS011;20065;48.380;10.892;2022-08-21T07:36:54;8.13;;;4.63;;
33740;SDS011;20065;48.380;10.892;2022-08-21T07:39:40;8.40;;;5.13;;
33740;SDS011;20065;48.380;10.892;2022-08-21T07:42:27;8.90;;;5.10;;
33740;SDS011;20065;48.380;10.892;2022-08-21T07:45:13;7.63;;;4.30;;
33740;SDS011;20065;48.380;10.892;2022-08-21T07:48:00;9.03;;;4.67;;
33740;SDS011;20065;48.380;10.892;2022-08-21T07:50:47;5.80;;;4.30;;
33740;SDS011;20065;48.380;10.892;2022-08-21T07:53:34;7.07;;;4.60;;
33740;SDS011;20065;48.380;10.892;2022-08-21T07:56:21;8.53;;;4.60;;
33740;SDS011;20065;48.380;10.892;2022-08-21T07:59:07;9.50;;;5.37;;
33740;SDS011;20065;48.380;10.892;2022-08-21T08:01:53;7.97;;;4.90;;
33740;SDS011;20065;48.380;10.892;2022-08-21T08:04:39;7.50;;;5.57;;
33740;SDS011;20065;48.380;10.892;2022-08-21T08:07:25;8.03;;;5.60;;
33740;SDS011;20065;48.380;10.892;2022-08-21T08:10:12;7.07;;;4.67;;
33740;SDS011;20065;48.380;10.892;2022-08-21T08:12:58;8.73;;;4.77;;
33740;SDS011;20065;48.380;10.892;2022-08-21T08:15:45;8.60;;;5.53;;
33740;SDS011;20065;48.380;10.892;2022-08-21T08:18:31;7.93;;;5.80;;
33740;SDS011;20065;48.380;10.892;2022-08-21T08:21:17;8.97;;;5.90;;
33740;SDS011;20065;48.380;10.892;2022-08-21T08:24:06;7.43;;;5.30;;
33740;SDS011;20065;48.380;10.892;2022-08-21T08:26:52;6.80;;;5.37;;
33740;SDS011;20065;48.380;10.892;2022-08-21T08:29:39;8.10;;;5.50;;
33740;SDS011;20065;48.380;10.892;2022-08-21T08:32:25;9.90;;;4.87;;
33740;SDS011;20065;48.380;10.892;2022-08-21T08:35:11;7.87;;;5.33;;
33740;SDS011;20065;48.380;10.892;2022-08-21T08:37:58;7.00;;;5.70;;
33740;SDS011;20065;48.380;10.892;2022-08-21T08:43:33;7.70;;;4.93;;
33740;SDS011;20065;48.380;10.892;2022-08-21T08:46:36;7.60;;;6.17;;
33740;SDS011;20065;48.380;10.892;2022-08-21T08:52:19;10.10;;;5.90;;
33740;SDS011;20065;48.380;10.892;2022-08-21T08:55:09;11.33;;;6.00;;
33740;SDS011;20065;48.380;10.892;2022-08-21T08:58:02;7.30;;;5.70;;
33740;SDS011;20065;48.380;10.892;2022-08-21T09:00:49;7.10;;;5.17;;
33740;SDS011;20065;48.380;10.892;2022-08-21T09:03:37;9.23;;;5.23;;
33740;SDS011;20065;48.380;10.892;2022-08-21T09:09:22;11.87;;;5.77;;
33740;SDS011;20065;48.380;10.892;2022-08-21T09:12:18;7.90;;;5.70;;
33740;SDS011;20065;48.380;10.892;2022-08-21T09:15:57;6.33;;;4.73;;
33740;SDS011;20065;48.380;10.892;2022-08-21T09:25:15;10.10;;;5.23;;
33740;SDS011;20065;48.380;10.892;2022-08-21T09:28:09;6.70;;;4.83;;
33740;SDS011;20065;48.380;10.892;2022-08-21T09:30:57;7.93;;;5.30;;
33740;SDS011;20065;48.380;10.892;2022-08-21T09:33:47;6.13;;;4.87;;
33740;SDS011;20065;48.380;10.892;2022-08-21T09:36:39;11.23;;;4.97;;
33740;SDS011;20065;48.380;10.892;2022-08-21T09:39:38;9.07;;;6.40;;
33740;SDS011;20065;48.380;10.892;2022-08-21T09:42:29;7.97;;;5.87;;
33740;SDS011;20065;48.380;10.892;2022-08-21T09:45:17;6.63;;;4.70;;
33740;SDS011;20065;48.380;10.892;2022-08-21T09:48:23;7.80;;;5.17;;
33740;SDS011;20065;48.380;10.892;2022-08-21T09:51:15;7.00;;;5.00;;
33740;SDS011;20065;48.380;10.892;2022-08-21T09:57:18;7.80;;;5.40;;
33740;SDS011;20065;48.380;10.892;2022-08-21T10:00:25;7.17;;;4.70;;
33740;SDS011;20065;48.380;10.892;2022-08-21T10:06:05;9.00;;;4.40;;
33740;SDS011;20065;48.380;10.892;2022-08-21T10:09:11;8.63;;;4.60;;
33740;SDS011;20065;48.380;10.892;2022-08-21T10:14:52;8.20;;;4.60;;
33740;SDS011;20065;48.380;10.892;2022-08-21T10:18:15;6.63;;;4.27;;
33740;SDS011;20065;48.380;10.892;2022-08-21T10:24:32;7.63;;;3.10;;
33740;SDS011;20065;48.380;10.892;2022-08-21T10:30:19;6.83;;;4.30;;
33740;SDS011;20065;48.380;10.892;2022-08-21T10:36:18;5.37;;;2.87;;
33740;SDS011;20065;48.380;10.892;2022-08-21T10:42:33;7.00;;;3.60;;
33740;SDS011;20065;48.380;10.892;2022-08-21T10:51:23;5.50;;;2.83;;
33740;SDS011;20065;48.380;10.892;2022-08-21T11:00:28;6.83;;;3.03;;
33740;SDS011;20065;48.380;10.892;2022-08-21T11:06:41;8.50;;;3.00;;
33740;SDS011;20065;48.380;10.892;2022-08-21T11:09:32;7.30;;;3.30;;
33740;SDS011;20065;48.380;10.892;2022-08-21T11:12:36;6.90;;;2.80;;
33740;SDS011;20065;48.380;10.892;2022-08-21T11:15:45;7.63;;;3.23;;
33740;SDS011;20065;48.380;10.892;2022-08-21T11:18:53;5.67;;;2.50;;
33740;SDS011;20065;48.380;10.892;2022-08-21T11:22:05;5.57;;;3.13;;
33740;SDS011;20065;48.380;10.892;2022-08-21T11:28:18;5.40;;;2.60;;
33740;SDS011;20065;48.380;10.892;2022-08-21T11:34:36;6.17;;;2.70;;
33740;SDS011;20065;48.380;10.892;2022-08-21T11:50:14;5.97;;;3.30;;
33740;SDS011;20065;48.380;10.892;2022-08-21T11:56:05;5.20;;;2.90;;
33740;SDS011;20065;48.380;10.892;2022-08-21T11:59:02;5.43;;;3.00;;
33740;SDS011;20065;48.380;10.892;2022-08-21T12:01:55;4.50;;;2.80;;
33740;SDS011;20065;48.380;10.892;2022-08-21T12:04:43;6.43;;;2.80;;
33740;SDS011;20065;48.380;10.892;2022-08-21T12:07:45;5.37;;;2.97;;
33740;SDS011;20065;48.380;10.892;2022-08-21T12:10:36;7.20;;;3.30;;
33740;SDS011;20065;48.380;10.892;2022-08-21T12:13:29;4.20;;;2.60;;
33740;SDS011;20065;48.380;10.892;2022-08-21T12:16:35;5.93;;;2.70;;
33740;SDS011;20065;48.380;10.892;2022-08-21T12:22:11;8.50;;;3.13;;
33740;SDS011;20065;48.380;10.892;2022-08-21T12:25:03;9.47;;;3.27;;
33740;SDS011;20065;48.380;10.892;2022-08-21T12:28:02;5.37;;;3.00;;
33740;SDS011;20065;48.380;10.892;2022-08-21T12:30:53;4.90;;;2.70;;
33740;SDS011;20065;48.380;10.892;2022-08-21T12:33:39;6.60;;;3.30;;
33740;SDS011;20065;48.380;10.892;2022-08-21T12:36:45;5.37;;;2.90;;
33740;SDS011;20065;48.380;10.892;2022-08-21T12:39:43;5.50;;;3.00;;
33740;SDS011;20065;48.380;10.892;2022-08-21T12:42:41;4.70;;;3.10;;
33740;SDS011;20065;48.380;10.892;2022-08-21T12:45:34;5.67;;;3.17;;
33740;SDS011;20065;48.380;10.892;2022-08-21T12:48:29;4.60;;;2.87;;
33740;SDS011;20065;48.380;10.892;2022-08-21T12:54:53;4.77;;;2.80;;
33740;SDS011;20065;48.380;10.892;2022-08-21T12:57:39;5.17;;;2.87;;
33740;SDS011;20065;48.380;10.892;2022-08-21T13:00:28;7.07;;;2.83;;
33740;SDS011;20065;48.380;10.892;2022-08-21T13:03:15;4.47;;;2.30;;
33740;SDS011;20065;48.380;10.892;2022-08-21T13:06:05;4.30;;;2.60;;
33740;SDS011;20065;48.380;10.892;2022-08-21T13:08:58;7.77;;;2.87;;
33740;SDS011;20065;48.380;10.892;2022-08-21T13:11:51;6.07;;;3.00;;
33740;SDS011;20065;48.380;10.892;2022-08-21T13:14:39;4.97;;;2.57;;
33740;SDS011;20065;48.380;10.892;2022-08-21T13:17:29;3.70;;;2.30;;
33740;SDS011;20065;48.380;10.892;2022-08-21T13:20:24;5.10;;;2.93;;
33740;SDS011;20065;48.380;10.892;2022-08-21T13:23:22;5.90;;;3.50;;
33740;SDS011;20065;48.380;10.892;2022-08-21T13:26:18;5.23;;;2.60;;
33740;SDS011;20065;48.380;10.892;2022-08-21T13:29:06;4.27;;;2.70;;
33740;SDS011;20065;48.380;10.892;2022-08-21T13:32:00;4.10;;;2.33;;
33740;SDS011;20065;48.380;10.892;2022-08-21T13:34:48;5.00;;;2.90;;
33740;SDS011;20065;48.380;10.892;2022-08-21T13:37:35;5.40;;;2.90;;
33740;SDS011;20065;48.380;10.892;2022-08-21T13:40:28;4.27;;;2.30;;
33740;SDS011;20065;48.380;10.892;2022-08-21T13:43:18;5.47;;;2.60;;
33740;SDS011;20065;48.380;10.892;2022-08-21T13:46:08;6.00;;;2.70;;
33740;SDS011;20065;48.380;10.892;2022-08-21T13:48:58;3.77;;;2.10;;
33740;SDS011;20065;48.380;10.892;2022-08-21T13:51:46;6.73;;;2.80;;
33740;SDS011;20065;48.380;10.892;2022-08-21T13:54:37;5.43;;;2.30;;
33740;SDS011;20065;48.380;10.892;2022-08-21T13:57:29;4.70;;;2.60;;
33740;SDS011;20065;48.380;10.892;2022-08-21T14:00:19;3.80;;;2.80;;
33740;SDS011;20065;48.380;10.892;2022-08-21T14:03:11;4.40;;;2.00;;
33740;SDS011;20065;48.380;10.892;2022-08-21T14:06:18;4.10;;;2.30;;
33740;SDS011;20065;48.380;10.892;2022-08-21T14:09:12;3.30;;;2.43;;
33740;SDS011;20065;48.380;10.892;2022-08-21T14:12:16;4.47;;;2.60;;
33740;SDS011;20065;48.380;10.892;2022-08-21T14:15:10;4.43;;;2.87;;
33740;SDS011;20065;48.380;10.892;2022-08-21T14:18:34;9.07;;;2.30;;
33740;SDS011;20065;48.380;10.892;2022-08-21T14:21:14;3.53;;;2.50;;
33740;SDS011;20065;48.380;10.892;2022-08-21T14:24:13;4.30;;;2.10;;
33740;SDS011;20065;48.380;10.892;2022-08-21T14:27:10;5.87;;;2.90;;
33740;SDS011;20065;48.380;10.892;2022-08-21T14:29:57;4.70;;;2.30;;
33740;SDS011;20065;48.380;10.892;2022-08-21T14:32:54;3.57;;;2.13;;
33740;SDS011;20065;48.380;10.892;2022-08-21T14:35:40;3.30;;;2.13;;
33740;SDS011;20065;48.380;10.892;2022-08-21T14:38:27;6.03;;;2.33;;
33740;SDS011;20065;48.380;10.892;2022-08-21T14:41:22;5.87;;;3.13;;
33740;SDS011;20065;48.380;10.892;2022-08-21T14:44:09;4.30;;;2.47;;
33740;SDS011;20065;48.380;10.892;2022-08-21T14:46:56;3.80;;;2.50;;
33740;SDS011;20065;48.380;10.892;2022-08-21T14:49:42;4.27;;;2.60;;
33740;SDS011;20065;48.380;10.892;2022-08-21T14:52:28;8.13;;;2.80;;
33740;SDS011;20065;48.380;10.892;2022-08-21T14:55:15;5.27;;;3.30;;
33740;SDS011;20065;48.380;10.892;2022-08-21T14:58:02;7.30;;;3.00;;
33740;SDS011;20065;48.380;10.892;2022-08-21T15:00:49;4.33;;;2.57;;
33740;SDS011;20065;48.380;10.892;2022-08-21T15:03:36;5.80;;;3.20;;
33740;SDS011;20065;48.380;10.892;2022-08-21T15:06:23;7.00;;;3.00;;
33740;SDS011;20065;48.380;10.892;2022-08-21T15:09:09;4.90;;;3.30;;
33740;SDS011;20065;48.380;10.892;2022-08-21T15:11:56;6.60;;;3.43;;
33740;SDS011;20065;48.380;10.892;2022-08-21T15:14:45;5.77;;;2.80;;
33740;SDS011;20065;48.380;10.892;2022-08-21T15:17:32;6.93;;;2.80;;
33740;SDS011;20065;48.380;10.892;2022-08-21T15:20:19;4.83;;;3.00;;
33740;SDS011;20065;48.380;10.892;2022-08-21T15:23:05;4.90;;;3.17;;
33740;SDS011;20065;48.380;10.892;2022-08-21T15:25:53;5.20;;;2.77;;
33740;SDS011;20065;48.380;10.892;2022-08-21T15:28:43;6.40;;;3.17;;
33740;SDS011;20065;48.380;10.892;2022-08-21T15:31:29;7.07;;;3.00;;
33740;SDS011;20065;48.380;10.892;2022-08-21T15:34:15;8.97;;;4.10;;
33740;SDS011;20065;48.380;10.892;2022-08-21T15:37:02;6.70;;;3.40;;
33740;SDS011;20065;48.380;10.892;2022-08-21T15:39:51;5.57;;;2.90;;
33740;SDS011;20065;48.380;10.892;2022-08-21T15:42:38;5.70;;;3.37;;
33740;SDS011;20065;48.380;10.892;2022-08-21T15:45:25;4.07;;;2.30;;
33740;SDS011;20065;48.380;10.892;2022-08-21T15:48:13;6.47;;;3.20;;
33740;SDS011;20065;48.380;10.892;2022-08-21T15:50:59;7.00;;;3.77;;
33740;SDS011;20065;48.380;10.892;2022-08-21T15:53:45;7.83;;;3.10;;
33740;SDS011;20065;48.380;10.892;2022-08-21T15:56:35;6.37;;;3.20;;
33740;SDS011;20065;48.380;10.892;2022-08-21T15:59:24;7.53;;;3.23;;
33740;SDS011;20065;48.380;10.892;2022-08-21T16:02:13;8.87;;;3.10;;
33740;SDS011;20065;48.380;10.892;2022-08-21T16:05:02;8.53;;;3.10;;
33740;SDS011;20065;48.380;10.892;2022-08-21T16:07:49;6.00;;;2.87;;
33740;SDS011;20065;48.380;10.892;2022-08-21T16:10:36;5.60;;;2.90;;
33740;SDS011;20065;48.380;10.892;2022-08-21T16:13:24;5.97;;;2.87;;
33740;SDS011;20065;48.380;10.892;2022-08-21T16:16:22;8.00;;;3.30;;
33740;SDS011;20065;48.380;10.892;2022-08-21T16:19:10;4.57;;;2.93;;
33740;SDS011;20065;48.380;10.892;2022-08-21T16:21:57;7.03;;;3.23;;
33740;SDS011;20065;48.380;10.892;2022-08-21T16:24:43;5.80;;;3.10;;
33740;SDS011;20065;48.380;10.892;2022-08-21T16:27:31;6.27;;;3.07;;
33740;SDS011;20065;48.380;10.892;2022-08-21T16:30:18;5.47;;;3.30;;
33740;SDS011;20065;48.380;10.892;2022-08-21T16:33:06;7.50;;;2.90;;
33740;SDS011;20065;48.380;10.892;2022-08-21T16:35:57;6.70;;;3.03;;
33740;SDS011;20065;48.380;10.892;2022-08-21T16:38:44;7.23;;;3.50;;
33740;SDS011;20065;48.380;10.892;2022-08-21T16:41:33;5.10;;;2.83;;
33740;SDS011;20065;48.380;10.892;2022-08-21T16:44:20;8.00;;;2.50;;
33740;SDS011;20065;48.380;10.892;2022-08-21T16:47:07;4.73;;;2.90;;
33740;SDS011;20065;48.380;10.892;2022-08-21T16:49:53;4.03;;;2.77;;
33740;SDS011;20065;48.380;10.892;2022-08-21T16:52:39;6.17;;;3.23;;
33740;SDS011;20065;48.380;10.892;2022-08-21T16:55:26;5.87;;;2.87;;
33740;SDS011;20065;48.380;10.892;2022-08-21T16:58:16;6.87;;;3.20;;
33740;SDS011;20065;48.380;10.892;2022-08-21T17:01:17;5.30;;;2.93;;
33740;SDS011;20065;48.380;10.892;2022-08-21T17:04:05;8.20;;;3.23;;
33740;SDS011;20065;48.380;10.892;2022-08-21T17:06:52;4.90;;;2.90;;
33740;SDS011;20065;48.380;10.892;2022-08-21T17:09:38;9.00;;;3.20;;
33740;SDS011;20065;48.380;10.892;2022-08-21T17:12:24;4.60;;;2.77;;
33740;SDS011;20065;48.380;10.892;2022-08-21T17:15:22;5.57;;;3.13;;
33740;SDS011;20065;48.380;10.892;2022-08-21T17:18:13;5.70;;;2.60;;
33740;SDS011;20065;48.380;10.892;2022-08-21T17:21:02;6.07;;;2.60;;
33740;SDS011;20065;48.380;10.892;2022-08-21T17:23:51;16.17;;;3.63;;
33740;SDS011;20065;48.380;10.892;2022-08-21T17:26:37;5.87;;;3.13;;
33740;SDS011;20065;48.380;10.892;2022-08-21T17:29:24;5.23;;;2.80;;
33740;SDS011;20065;48.380;10.892;2022-08-21T17:32:16;5.30;;;2.87;;
33740;SDS011;20065;48.380;10.892;2022-08-21T17:35:03;5.60;;;2.93;;
33740;SDS011;20065;48.380;10.892;2022-08-21T17:37:50;5.20;;;2.73;;
33740;SDS011;20065;48.380;10.892;2022-08-21T17:40:38;5.80;;;3.20;;
33740;SDS011;20065;48.380;10.892;2022-08-21T17:43:24;5.33;;;3.40;;
33740;SDS011;20065;48.380;10.892;2022-08-21T17:46:11;4.60;;;3.00;;
33740;SDS011;20065;48.380;10.892;2022-08-21T17:49:03;7.93;;;3.60;;
33740;SDS011;20065;48.380;10.892;2022-08-21T17:51:53;5.63;;;3.53;;
33740;SDS011;20065;48.380;10.892;2022-08-21T17:54:41;5.57;;;2.77;;
33740;SDS011;20065;48.380;10.892;2022-08-21T17:57:27;8.23;;;2.70;;
33740;SDS011;20065;48.380;10.892;2022-08-21T18:00:18;4.77;;;2.90;;
33740;SDS011;20065;48.380;10.892;2022-08-21T18:03:08;7.90;;;3.60;;
33740;SDS011;20065;48.380;10.892;2022-08-21T18:05:59;4.30;;;2.73;;